Bayou Vista, Texas
Current Conditions -  °F | °C
As of 5:52 PM on Tuesday 25 Nov 2014 (Local Time) from KGLS Reporting Station
Clear Clear  
Wind Chill: 55°   Ceiling: Unl
Heat Index: 55°   Visibility: 10mi
Dew Point: 39°   Wind: 7mph
Humidity: 55%   Direction: 130°SE
Pressure: 30.25"   Gusts: NA
Location:  29.2947°N, 95.0312°W
Report Text: KGLS 252352Z 13006KT 10SM CLR 13/04 A3025 RMK AO2 SLP243 T01280039 10172 20128 53003
Loading
Personal Weather Stations






























Interactive Weather Map New forecast layout! Learn more

10-Day Weather Forecast

Advertisements
Track Severe Weather on mobile